Time;durP1;ratioP1;P1;durP2;ratioP2;P2;SDS_P1;SDS_P2;PMS_P1;PMS_P2;Temp;Humidity;BMP_temperature;BMP_pressure;BME280_temperature;BME280_humidity;BME280_pressure;Samples;Min_cycle;Max_cycle;Signal;HPM_P1;HPM_P2
2021/12/21 00:02:20;;;;;;;13.25;5.78;;;1.60;99.90;;;;;;4986197;28;20041;-64
2021/12/21 00:04:46;;;;;;;17.08;6.80;;;1.30;99.90;;;;;;4986371;28;20151;-64
2021/12/21 00:07:11;;;;;;;15.98;5.65;;;1.30;99.90;;;;;;4992278;28;20031;-64
2021/12/21 00:09:37;;;;;;;19.13;6.97;;;1.30;99.90;;;;;;4986431;28;20085;-64
2021/12/21 00:12:02;;;;;;;22.17;7.68;;;1.30;99.90;;;;;;4990684;28;20089;-64
2021/12/21 00:20:03;;;;;;;18.05;6.38;;;1.40;99.90;;;;;;4991888;28;20051;-63
2021/12/21 00:25:01;;;;;;;18.98;7.80;;;;;;;;;;4986931;28;20125;-64
2021/12/21 00:27:26;;;;;;;17.63;6.97;;;1.30;99.90;;;;;;4993697;28;20659;-64
2021/12/21 00:29:52;;;;;;;23.10;6.97;;;1.20;99.90;;;;;;4986070;28;20447;-64
2021/12/21 00:32:17;;;;;;;23.75;8.57;;;1.40;99.90;;;;;;4988847;28;20036;-64
2021/12/21 00:34:42;;;;;;;14.32;6.95;;;1.50;99.90;;;;;;4990440;28;20560;-65
2021/12/21 00:37:08;;;;;;;17.58;7.38;;;1.40;99.90;;;;;;4986761;28;20097;-66
2021/12/21 00:39:34;;;;;;;22.52;8.55;;;1.70;99.90;;;;;;4992210;28;20101;-64
2021/12/21 00:42:01;;;;;;;23.27;9.15;;;1.60;99.90;;;;;;4989002;28;20499;-64
2021/12/21 00:44:26;;;;;;;23.95;7.57;;;1.60;99.90;;;;;;4986026;28;20041;-64
2021/12/21 00:46:52;;;;;;;21.13;8.18;;;1.30;99.90;;;;;;4990456;28;20034;-64
2021/12/21 00:49:18;;;;;;;29.95;7.95;;;;;;;;;;4988316;28;20034;-64
2021/12/21 00:51:44;;;;;;;24.73;7.30;;;;;;;;;;4986582;28;20042;-64
2021/12/21 00:54:10;;;;;;;21.02;7.97;;;;;;;;;;4988925;28;20122;-64
2021/12/21 00:56:36;;;;;;;22.27;7.78;;;1.10;99.90;;;;;;4986051;28;20050;-64
2021/12/21 00:59:01;;;;;;;18.63;8.02;;;1.20;99.90;;;;;;4986885;28;20525;-63
2021/12/21 01:01:27;;;;;;;20.45;7.28;;;1.20;99.90;;;;;;4988573;28;20030;-64
2021/12/21 01:03:54;;;;;;;15.55;6.03;;;;;;;;;;4984919;28;20100;-64
2021/12/21 01:06:39;;;;;;;16.20;6.88;;;1.20;99.90;;;;;;4990228;28;20116;-64
2021/12/21 01:09:17;;;;;;;21.30;6.63;;;;;;;;;;4986441;28;20038;-64
2021/12/21 01:11:49;;;;;;;15.18;6.72;;;;;;;;;;4985530;28;20037;-64
2021/12/21 01:16:58;;;;;;;11.45;5.38;;;0.90;99.90;;;;;;4985389;28;20034;-64
2021/12/21 01:19:32;;;;;;;16.42;6.00;;;;;;;;;;4988177;28;20470;-64
2021/12/21 01:22:26;;;;;;;12.90;5.90;;;;;;;;;;4989126;28;20053;-64
2021/12/21 01:27:28;;;;;;;15.27;6.07;;;;;;;;;;4989837;28;20034;-64
2021/12/21 01:35:29;;;;;;;16.73;6.00;;;1.50;99.90;;;;;;4985642;28;20026;-64
2021/12/21 01:38:05;;;;;;;13.25;6.05;;;1.40;99.90;;;;;;4985482;28;20038;-64
2021/12/21 01:40:50;;;;;;;12.35;5.75;;;;;;;;;;4989985;28;20045;-64
2021/12/21 01:51:24;;;;;;;15.70;6.38;;;1.00;99.90;;;;;;4984950;28;20125;-64
2021/12/21 01:53:49;;;;;;;17.20;6.75;;;1.00;99.90;;;;;;4986467;28;20026;-64
2021/12/21 01:56:15;;;;;;;17.30;7.22;;;1.10;99.90;;;;;;4981954;28;20072;-64
2021/12/21 01:58:40;;;;;;;16.98;6.72;;;1.00;99.90;;;;;;4986688;28;20062;-64
2021/12/21 02:01:06;;;;;;;21.33;7.53;;;1.00;99.90;;;;;;4997040;28;20766;-64
2021/12/21 02:03:31;;;;;;;23.67;7.80;;;1.10;99.90;;;;;;4987818;28;20056;-64
2021/12/21 02:05:57;;;;;;;24.20;7.82;;;1.30;99.90;;;;;;4984878;28;20038;-64
2021/12/21 02:08:22;;;;;;;17.17;7.43;;;1.30;99.90;;;;;;4984271;28;20034;-64
2021/12/21 02:10:48;;;;;;;17.48;7.53;;;1.30;99.90;;;;;;4989952;28;20038;-64
2021/12/21 02:13:13;;;;;;;17.80;7.68;;;1.50;99.90;;;;;;4992392;28;20045;-64
2021/12/21 02:15:39;;;;;;;20.60;7.65;;;1.10;99.90;;;;;;4990418;28;20482;-64
2021/12/21 02:23:10;;;;;;;20.65;8.25;;;1.50;99.90;;;;;;4983480;28;20045;-64
2021/12/21 02:30:45;;;;;;;24.10;8.57;;;;;;;;;;4983934;28;20183;-64
2021/12/21 02:33:12;;;;;;;25.63;9.02;;;;;;;;;;4984355;28;20736;-64
2021/12/21 02:35:37;;;;;;;30.73;8.98;;;1.00;99.90;;;;;;4983405;28;20072;-64
2021/12/21 02:38:03;;;;;;;26.65;9.57;;;1.30;99.90;;;;;;4981529;28;20114;-64
2021/12/21 02:40:28;;;;;;;26.23;9.43;;;1.10;99.90;;;;;;4995309;28;20089;-64
2021/12/21 02:42:54;;;;;;;21.75;9.85;;;;;;;;;;4981881;28;20125;-64
2021/12/21 02:45:20;;;;;;;26.65;10.32;;;1.30;99.90;;;;;;4989248;28;20069;-63
2021/12/21 02:47:45;;;;;;;22.33;9.80;;;;;;;;;;4985764;28;20576;-63
2021/12/21 02:50:11;;;;;;;28.90;10.85;;;;;;;;;;4982322;28;20092;-63
2021/12/21 02:52:37;;;;;;;32.25;11.77;;;1.10;99.90;;;;;;4989490;28;20033;-64
2021/12/21 02:55:02;;;;;;;25.20;10.73;;;1.30;99.90;;;;;;4981256;28;20129;-63
2021/12/21 02:57:28;;;;;;;34.47;11.98;;;1.20;99.90;;;;;;4983236;28;20034;-63
2021/12/21 02:59:53;;;;;;;29.40;12.50;;;1.10;99.90;;;;;;4987362;28;20053;-64
2021/12/21 03:02:19;;;;;;;32.35;11.95;;;1.10;99.90;;;;;;4986720;28;20092;-64
2021/12/21 03:04:44;;;;;;;27.63;11.88;;;1.10;99.90;;;;;;4985183;28;20034;-64
2021/12/21 03:09:41;;;;;;;34.10;13.05;;;0.90;99.90;;;;;;4983455;28;20049;-64
2021/12/21 03:12:13;;;;;;;47.10;13.77;;;0.90;99.90;;;;;;4986677;28;20050;-64
2021/12/21 03:14:38;;;;;;;27.08;12.85;;;1.40;99.90;;;;;;4983860;28;20037;-64
2021/12/21 03:17:04;;;;;;;29.33;11.80;;;;;;;;;;4983829;28;20034;-64
2021/12/21 03:19:30;;;;;;;32.72;11.93;;;1.00;99.90;;;;;;4989420;28;20143;-64
2021/12/21 03:21:55;;;;;;;34.78;12.88;;;1.30;99.90;;;;;;4984820;28;20035;-64
2021/12/21 03:24:21;;;;;;;28.23;11.95;;;;;;;;;;4980182;28;20636;-64
2021/12/21 03:26:46;;;;;;;30.15;12.18;;;1.10;99.90;;;;;;4989495;28;20029;-64
2021/12/21 03:29:12;;;;;;;33.67;12.48;;;;;;;;;;4983625;28;20044;-63
2021/12/21 03:31:38;;;;;;;30.13;13.25;;;;;;;;;;4988869;28;20068;-63
2021/12/21 03:34:04;;;;;;;29.27;12.73;;;;;;;;;;4989037;28;20705;-64
2021/12/21 03:36:30;;;;;;;37.33;13.77;;;1.60;99.90;;;;;;4987391;28;20045;-64
2021/12/21 03:39:05;;;;;;;40.10;13.48;;;;;;;;;;4989056;28;20027;-64
2021/12/21 03:41:30;;;;;;;;;;;0.90;99.90;;;;;;4998627;28;20026;-64
2021/12/21 03:44:00;;;;;;;40.97;13.82;;;;;;;;;;4990832;28;20373;-64
2021/12/21 03:46:26;;;;;;;39.85;14.20;;;;;;;;;;4990295;28;20029;-64
2021/12/21 03:48:52;;;;;;;41.92;15.15;;;;;;;;;;4985992;28;20061;-63
2021/12/21 03:51:18;;;;;;;39.92;14.93;;;;;;;;;;4992529;28;20585;-64
2021/12/21 03:53:44;;;;;;;40.78;14.75;;;;;;;;;;4989272;28;20034;-64
2021/12/21 03:58:42;;;;;;;37.08;16.85;;;;;;;;;;4991648;28;20042;-64
2021/12/21 04:01:08;;;;;;;42.67;15.80;;;;;;;;;;4993497;28;20030;-64
2021/12/21 04:03:34;;;;;;;47.30;16.83;;;;;;;;;;4986538;28;20048;-64
2021/12/21 04:06:00;;;;;;;43.95;17.80;;;;;;;;;;4991299;28;20034;-64
2021/12/21 04:08:26;;;;;;;40.25;16.02;;;;;;;;;;4987437;28;20085;-64
2021/12/21 04:10:52;;;;;;;46.95;16.85;;;;;;;;;;4985601;28;20121;-64
2021/12/21 04:13:18;;;;;;;42.60;17.33;;;;;;;;;;4990414;28;20517;-64
2021/12/21 04:15:44;;;;;;;47.67;17.95;;;;;;;;;;4986417;28;20030;-64
2021/12/21 04:18:10;;;;;;;43.45;17.25;;;;;;;;;;4982464;28;20034;-64
2021/12/21 04:20:36;;;;;;;36.00;16.75;;;;;;;;;;4985096;28;20797;-64
2021/12/21 04:23:02;;;;;;;40.00;17.58;;;0.80;99.90;;;;;;4986442;28;20636;-64
2021/12/21 04:25:27;;;;;;;42.15;17.33;;;0.40;99.90;;;;;;4990600;28;20041;-64
2021/12/21 04:27:54;;;;;;;38.67;17.35;;;;;;;;;;4988280;28;20043;-64
2021/12/21 04:30:19;;;;;;;47.00;19.42;;;0.90;99.90;;;;;;4987943;28;20030;-64
2021/12/21 04:32:45;;;;;;;45.80;18.40;;;;;;;;;;4991301;28;20582;-64
2021/12/21 04:35:12;;;;;;;43.20;18.35;;;;;;;;;;4984464;28;20034;-64
2021/12/21 04:37:45;;;;;;;36.65;17.67;;;;;;;;;;4985643;28;20034;-64
2021/12/21 04:40:16;;;;;;;56.60;18.90;;;;;;;;;;4988983;28;20141;-64
2021/12/21 04:42:42;;;;;;;48.08;19.17;;;;;;;;;;4983385;28;20034;-64
2021/12/21 04:45:08;;;;;;;42.28;17.83;;;;;;;;;;4987837;28;20044;-64
2021/12/21 04:47:34;;;;;;;46.42;18.10;;;;;;;;;;4988945;28;20057;-64
2021/12/21 04:49:59;;;;;;;48.03;17.98;;;0.80;99.90;;;;;;4987520;28;20112;-64
2021/12/21 04:52:25;;;;;;;46.30;18.75;;;0.70;99.90;;;;;;4988838;28;20072;-64
2021/12/21 04:54:50;;;;;;;49.22;19.67;;;0.80;99.90;;;;;;4989781;28;20030;-64
2021/12/21 04:57:16;;;;;;;49.47;18.58;;;0.70;99.90;;;;;;4985697;28;20038;-64
2021/12/21 04:59:41;;;;;;;49.78;18.38;;;0.30;99.90;;;;;;4990008;28;20085;-64
2021/12/21 05:02:07;;;;;;;42.22;19.38;;;;;;;;;;4986471;28;20783;-64
2021/12/21 05:04:34;;;;;;;49.30;19.65;;;;;;;;;;4987970;28;20038;-64
2021/12/21 05:07:00;;;;;;;45.72;19.70;;;;;;;;;;4989157;28;20092;-64
2021/12/21 05:09:29;;;;;;;49.10;21.05;;;0.30;99.90;;;;;;4984557;28;20072;-64
2021/12/21 05:12:01;;;;;;;50.83;20.45;;;;;;;;;;4969062;28;20041;-64
2021/12/21 05:14:28;;;;;;;46.75;19.25;;;;;;;;;;4988762;28;20041;-64
2021/12/21 05:16:54;;;;;;;50.42;20.33;;;;;;;;;;4984423;28;20034;-64
2021/12/21 05:19:20;;;;;;;50.45;21.02;;;;;;;;;;4988253;28;20076;-64
2021/12/21 05:21:46;;;;;;;50.92;20.20;;;;;;;;;;4985453;28;20451;-64
2021/12/21 05:24:12;;;;;;;51.20;18.88;;;;;;;;;;4980663;28;20498;-64
2021/12/21 05:26:38;;;;;;;37.10;17.42;;;;;;;;;;4988013;28;20067;-64
2021/12/21 05:29:04;;;;;;;38.47;16.70;;;;;;;;;;4983584;28;20150;-64
2021/12/21 05:31:30;;;;;;;54.50;20.60;;;;;;;;;;4987436;28;20025;-64
2021/12/21 05:33:56;;;;;;;59.78;23.55;;;;;;;;;;4982758;28;20477;-64
2021/12/21 05:36:22;;;;;;;50.72;20.40;;;;;;;;;;4985967;28;20079;-64
2021/12/21 05:38:51;;;;;;;50.28;18.73;;;;;;;;;;4987186;28;20036;-64
2021/12/21 05:41:25;;;;;;;51.53;18.70;;;;;;;;;;4983885;28;20035;-64
2021/12/21 05:43:51;;;;;;;47.08;19.58;;;;;;;;;;4985307;28;20046;-64
2021/12/21 05:46:17;;;;;;;52.58;19.15;;;;;;;;;;4988319;28;20117;-68
2021/12/21 05:48:43;;;;;;;46.78;20.80;;;;;;;;;;4982401;28;20120;-68
2021/12/21 05:51:09;;;;;;;43.05;19.23;;;;;;;;;;4986192;28;20092;-69
2021/12/21 05:53:35;;;;;;;45.65;16.58;;;;;;;;;;4988592;28;20034;-69
2021/12/21 05:56:01;;;;;;;47.00;17.35;;;;;;;;;;4985583;28;20065;-69
2021/12/21 05:58:26;;;;;;;40.45;17.85;;;0.80;99.90;;;;;;4982540;28;20026;-69
2021/12/21 06:00:52;;;;;;;45.58;18.25;;;0.70;99.90;;;;;;4989834;28;20058;-68
2021/12/21 06:03:18;;;;;;;54.88;19.55;;;;;;;;;;4990458;28;20929;-68
2021/12/21 06:05:43;;;;;;;40.40;17.88;;;0.30;99.90;;;;;;4988955;28;20030;-68
2021/12/21 06:08:09;;;;;;;42.00;18.48;;;;;;;;;;4982521;28;20438;-68
2021/12/21 06:10:39;;;;;;;36.72;17.63;;;0.90;99.90;;;;;;4985786;28;20030;-68
2021/12/21 06:15:42;;;;;;;34.05;16.73;;;;;;;;;;4983524;28;20628;-69
2021/12/21 06:26:14;;;;;;;36.67;15.88;;;;;;;;;;4992911;28;20080;-68
2021/12/21 06:28:39;;;;;;;46.08;15.88;;;0.60;99.90;;;;;;4982708;28;20146;-69
2021/12/21 06:31:05;;;;;;;45.92;15.35;;;0.90;99.90;;;;;;4978798;28;20038;-67
2021/12/21 06:33:30;;;;;;;35.72;16.25;;;1.00;99.90;;;;;;4983888;28;20101;-67
2021/12/21 06:35:56;;;;;;;38.60;16.70;;;1.00;99.90;;;;;;4983452;28;20038;-68
2021/12/21 06:38:21;;;;;;;37.13;15.90;;;1.00;99.90;;;;;;4991152;28;20072;-68
2021/12/21 06:40:47;;;;;;;43.75;18.42;;;1.00;99.90;;;;;;4987440;28;20038;-68
2021/12/21 06:43:15;;;;;;;42.53;18.00;;;1.10;99.90;;;;;;4980455;28;20115;-68
2021/12/21 06:51:10;;;;;;;35.35;15.80;;;;;;;;;;4984567;28;20050;-67
2021/12/21 06:53:36;;;;;;;33.70;16.02;;;;;;;;;;4983317;28;20742;-68
2021/12/21 06:56:01;;;;;;;43.22;14.82;;;1.20;99.90;;;;;;4981987;28;20060;-68
2021/12/21 06:58:28;;;;;;;33.72;15.82;;;;;;;;;;4984934;28;20089;-68
2021/12/21 07:00:53;;;;;;;45.47;16.65;;;1.30;99.90;;;;;;4984694;28;20033;-67
2021/12/21 07:03:19;;;;;;;37.83;16.52;;;1.10;99.90;;;;;;4983411;28;20084;-67
2021/12/21 07:05:44;;;;;;;37.80;16.38;;;1.20;99.90;;;;;;4992831;28;20475;-68
2021/12/21 07:08:14;;;;;;;41.55;16.95;;;;;;;;;;4982927;28;20088;-68
2021/12/21 07:10:40;;;;;;;44.55;16.23;;;1.20;99.90;;;;;;4995060;28;20057;-68
2021/12/21 07:18:36;;;;;;;39.58;17.27;;;;;;;;;;4993511;28;20080;-69
2021/12/21 07:21:02;;;;;;;43.40;17.90;;;;;;;;;;4984687;28;20034;-68
2021/12/21 07:23:28;;;;;;;43.17;17.70;;;;;;;;;;4982224;28;20149;-63
2021/12/21 07:25:54;;;;;;;40.85;16.95;;;;;;;;;;4983960;28;20033;-63
2021/12/21 07:28:19;;;;;;;50.42;19.35;;;1.10;99.90;;;;;;4980330;28;20069;-64
2021/12/21 07:30:47;;;;;;;44.83;17.40;;;1.00;99.90;;;;;;4988225;28;20700;-65
2021/12/21 07:33:13;;;;;;;38.53;16.38;;;;;;;;;;4989158;28;20030;-64
2021/12/21 07:35:39;;;;;;;32.10;16.08;;;;;;;;;;4986024;28;20494;-64
2021/12/21 07:38:05;;;;;;;38.65;17.17;;;;;;;;;;4989032;28;20117;-64
2021/12/21 07:40:31;;;;;;;45.70;17.83;;;;;;;;;;4985155;28;20124;-64
2021/12/21 07:42:58;;;;;;;43.53;17.23;;;;;;;;;;4984897;28;20077;-64
2021/12/21 07:45:25;;;;;;;56.75;19.20;;;;;;;;;;4985394;28;20045;-64
2021/12/21 07:47:50;;;;;;;44.85;18.27;;;1.00;99.90;;;;;;4987755;28;20077;-64
2021/12/21 07:50:16;;;;;;;53.40;20.50;;;;;;;;;;4991907;28;20134;-64
2021/12/21 07:52:42;;;;;;;50.65;21.58;;;;;;;;;;4992263;28;20036;-64
2021/12/21 07:55:08;;;;;;;46.53;19.17;;;;;;;;;;4983705;28;20494;-64
2021/12/21 07:57:34;;;;;;;52.45;18.95;;;;;;;;;;4983242;28;20030;-64
2021/12/21 08:00:02;;;;;;;49.63;17.85;;;1.40;99.90;;;;;;4990255;28;20689;-64
2021/12/21 08:02:39;;;;;;;43.05;17.65;;;1.20;99.90;;;;;;4988301;28;20038;-64
2021/12/21 08:05:07;;;;;;;45.40;17.88;;;;;;;;;;4984400;28;20128;-64
2021/12/21 08:07:37;;;;;;;47.47;20.65;;;;;;;;;;4987533;28;20035;-64
2021/12/21 08:10:17;;;;;;;49.35;18.52;;;;;;;;;;4985548;28;20048;-64
2021/12/21 08:12:43;;;;;;;38.30;16.40;;;;;;;;;;4998212;28;20045;-64
2021/12/21 08:15:09;;;;;;;54.88;19.17;;;;;;;;;;4980495;28;20034;-64
2021/12/21 08:17:35;;;;;;;46.55;18.33;;;;;;;;;;4982987;28;20853;-64
2021/12/21 08:20:01;;;;;;;54.63;17.98;;;;;;;;;;4990889;28;20030;-64
2021/12/21 08:22:26;;;;;;;52.95;19.80;;;1.10;99.90;;;;;;4983694;28;20026;-64
2021/12/21 08:24:52;;;;;;;48.72;18.35;;;1.80;99.90;;;;;;4989855;28;20036;-64
2021/12/21 08:27:18;;;;;;;59.70;18.90;;;;;;;;;;4982809;28;20031;-64
2021/12/21 08:29:44;;;;;;;61.97;19.38;;;;;;;;;;4986575;28;20038;-64
2021/12/21 08:32:10;;;;;;;63.33;21.02;;;;;;;;;;4973841;28;20391;-64
2021/12/21 08:34:36;;;;;;;73.72;23.17;;;;;;;;;;4983463;28;20120;-64
2021/12/21 08:37:02;;;;;;;61.05;22.10;;;;;;;;;;4964482;28;20133;-64
2021/12/21 08:39:30;;;;;;;54.95;19.23;;;;;;;;;;4988930;28;20105;-64
2021/12/21 08:41:58;;;;;;;53.10;20.02;;;;;;;;;;4986301;28;20114;-65
2021/12/21 08:44:25;;;;;;;60.20;20.13;;;;;;;;;;4987069;28;20026;-65
2021/12/21 08:46:50;;;;;;;51.40;19.05;;;1.50;99.90;;;;;;4986615;28;20390;-65
2021/12/21 08:49:16;;;;;;;50.25;18.10;;;;;;;;;;4982950;28;20027;-66
2021/12/21 08:51:42;;;;;;;43.88;16.83;;;;;;;;;;4987069;28;20045;-65
2021/12/21 08:54:07;;;;;;;44.08;16.75;;;2.00;99.90;;;;;;4985073;28;20042;-65
2021/12/21 08:56:33;;;;;;;43.40;17.60;;;;;;;;;;4988528;28;20068;-65
2021/12/21 08:58:59;;;;;;;51.75;19.15;;;;;;;;;;4988045;28;20113;-65
2021/12/21 09:01:25;;;;;;;68.10;22.70;;;1.90;99.90;;;;;;4985974;28;20541;-65
2021/12/21 09:03:52;;;;;;;54.10;19.27;;;;;;;;;;4983908;28;20050;-65
2021/12/21 09:06:18;;;;;;;46.05;18.15;;;;;;;;;;4987868;28;20034;-65
2021/12/21 09:08:44;;;;;;;51.63;19.83;;;;;;;;;;4984423;28;20729;-65
2021/12/21 09:11:10;;;;;;;44.42;17.77;;;1.30;99.90;;;;;;4985360;28;20123;-65
2021/12/21 09:13:36;;;;;;;50.65;18.20;;;;;;;;;;4991369;28;20777;-64
2021/12/21 09:16:02;;;;;;;44.92;18.17;;;;;;;;;;4985125;28;20145;-65
2021/12/21 09:18:28;;;;;;;55.35;19.63;;;;;;;;;;4990529;28;20589;-64
2021/12/21 09:20:54;;;;;;;46.95;18.42;;;;;;;;;;4984624;28;20401;-65
2021/12/21 09:23:20;;;;;;;56.35;19.77;;;;;;;;;;4984718;28;20026;-69
2021/12/21 09:25:46;;;;;;;58.15;19.63;;;;;;;;;;4992767;28;20056;-69
2021/12/21 09:28:12;;;;;;;49.83;18.65;;;;;;;;;;4983687;28;20036;-69
2021/12/21 09:30:39;;;;;;;55.53;18.08;;;;;;;;;;4988837;28;20410;-69
2021/12/21 09:33:05;;;;;;;63.50;19.05;;;;;;;;;;4985114;28;20088;-69
2021/12/21 09:35:30;;;;;;;46.03;17.88;;;1.60;99.90;;;;;;4985315;28;20057;-69
2021/12/21 09:37:56;;;;;;;42.20;15.88;;;;;;;;;;4982577;28;20077;-69
2021/12/21 09:40:22;;;;;;;40.58;14.95;;;;;;;;;;4988630;28;20462;-69
2021/12/21 09:42:48;;;;;;;45.00;19.55;;;;;;;;;;4988402;28;20124;-69
2021/12/21 09:45:14;;;;;;;51.58;21.42;;;;;;;;;;4981406;28;20045;-69
2021/12/21 09:47:40;;;;;;;33.45;14.15;;;;;;;;;;4984718;28;20089;-69
2021/12/21 09:50:06;;;;;;;40.53;16.75;;;;;;;;;;4983248;28;20067;-69
2021/12/21 09:52:33;;;;;;;40.50;16.10;;;;;;;;;;4994975;28;20058;-69
2021/12/21 09:54:58;;;;;;;32.45;15.27;;;2.20;99.90;;;;;;4982893;28;20036;-69
2021/12/21 09:57:24;;;;;;;36.65;15.68;;;;;;;;;;4985906;28;20030;-69
2021/12/21 09:59:50;;;;;;;35.40;15.93;;;;;;;;;;4982860;28;20034;-69
2021/12/21 10:02:18;;;;;;;45.63;16.35;;;;;;;;;;4982569;28;20037;-69
2021/12/21 10:04:44;;;;;;;37.47;14.63;;;;;;;;;;4983040;28;20136;-69
2021/12/21 10:07:10;;;;;;;44.65;15.77;;;1.50;99.90;;;;;;4986345;28;20083;-69
2021/12/21 10:09:37;;;;;;;33.33;14.60;;;;;;;;;;4981841;28;20030;-69
2021/12/21 10:12:03;;;;;;;38.33;16.30;;;;;;;;;;4989841;28;20058;-69
2021/12/21 10:14:28;;;;;;;32.30;13.75;;;;;;;;;;4981302;28;20590;-69
2021/12/21 10:16:54;;;;;;;38.03;16.25;;;2.20;99.90;;;;;;4983053;28;20033;-69
2021/12/21 10:19:20;;;;;;;31.08;14.95;;;;;;;;;;4979610;28;20022;-69
2021/12/21 10:21:46;;;;;;;36.30;15.57;;;;;;;;;;4983866;28;20033;-69
2021/12/21 10:24:12;;;;;;;28.05;12.00;;;;;;;;;;4968076;28;20030;-69
2021/12/21 10:26:37;;;;;;;25.88;11.55;;;2.00;99.90;;;;;;4991838;28;20316;-69
2021/12/21 10:29:05;;;;;;;23.75;11.95;;;;;;;;;;4989138;28;20042;-69
2021/12/21 10:31:32;;;;;;;31.88;14.65;;;;;;;;;;4986117;28;20474;-69
2021/12/21 10:33:58;;;;;;;33.15;13.23;;;;;;;;;;4984340;28;20058;-70
2021/12/21 10:36:25;;;;;;;33.83;14.15;;;;;;;;;;4982928;28;20077;-70
2021/12/21 10:38:52;;;;;;;39.47;14.73;;;;;;;;;;4981632;28;20559;-70
2021/12/21 10:41:18;;;;;;;33.63;14.90;;;;;;;;;;4983714;28;20023;-70
2021/12/21 10:43:45;;;;;;;38.03;15.45;;;;;;;;;;4984572;28;20095;-69
2021/12/21 10:46:10;;;;;;;54.70;26.58;;;;;;;;;;4979890;28;20574;-69
2021/12/21 10:48:37;;;;;;;56.80;22.33;;;;;;;;;;4985882;28;20064;-70
2021/12/21 10:51:03;;;;;;;54.63;20.45;;;;;;;;;;4979973;28;20121;-70
2021/12/21 10:53:29;;;;;;;44.15;16.20;;;;;;;;;;4984367;28;20031;-69
2021/12/21 10:55:55;;;;;;;117.70;43.08;;;;;;;;;;4985155;28;20029;-69
2021/12/21 10:58:21;;;;;;;131.65;48.35;;;;;;;;;;4988669;28;20034;-64
2021/12/21 11:00:47;;;;;;;37.50;16.23;;;;;;;;;;4984370;28;20030;-65
2021/12/21 11:03:16;;;;;;;37.95;14.20;;;;;;;;;;4977529;28;20811;-65
2021/12/21 11:05:42;;;;;;;29.52;12.82;;;;;;;;;;4985812;28;20043;-64
2021/12/21 11:08:17;;;;;;;34.85;14.25;;;;;;;;;;4981569;28;20062;-66
2021/12/21 11:10:48;;;;;;;83.65;34.75;;;;;;;;;;4988994;28;20068;-66
2021/12/21 11:13:14;;;;;;;40.00;17.17;;;;;;;;;;4986559;28;20093;-66
2021/12/21 11:15:40;;;;;;;44.17;19.63;;;;;;;;;;4982913;28;20482;-66
2021/12/21 11:18:06;;;;;;;42.50;20.45;;;;;;;;;;4989948;28;20057;-66
2021/12/21 11:20:32;;;;;;;38.40;16.95;;;;;;;;;;4984104;28;20112;-66
2021/12/21 11:22:58;;;;;;;35.05;16.50;;;1.80;99.90;;;;;;4984976;28;20046;-66
2021/12/21 11:25:24;;;;;;;41.22;16.85;;;;;;;;;;4983014;28;20030;-66
2021/12/21 11:27:50;;;;;;;38.28;17.27;;;;;;;;;;4983964;28;20037;-66
2021/12/21 11:30:15;;;;;;;39.80;16.20;;;1.40;99.90;;;;;;4980528;28;20035;-66
2021/12/21 11:32:43;;;;;;;41.38;16.70;;;2.00;99.90;;;;;;4985579;28;20042;-66
2021/12/21 11:37:34;;;;;;;33.08;16.45;;;1.90;99.90;;;;;;4992989;28;20414;-66
2021/12/21 11:40:00;;;;;;;38.47;16.17;;;1.80;99.90;;;;;;4983652;28;20041;-66
2021/12/21 11:42:26;;;;;;;41.28;16.02;;;;;;;;;;4980841;28;20038;-66
2021/12/21 11:44:52;;;;;;;39.10;15.77;;;;;;;;;;4984889;28;20034;-66
2021/12/21 11:47:17;;;;;;;40.75;17.20;;;2.00;99.90;;;;;;4982158;28;20172;-71
2021/12/21 11:49:43;;;;;;;42.70;15.50;;;2.10;99.90;;;;;;4983665;28;20049;-72
2021/12/21 11:52:09;;;;;;;48.38;18.10;;;1.70;99.90;;;;;;4992553;28;20673;-71
2021/12/21 11:54:35;;;;;;;49.38;21.08;;;1.80;99.90;;;;;;4984032;28;20405;-71
2021/12/21 11:57:01;;;;;;;46.63;16.70;;;;;;;;;;4987329;28;20034;-70
2021/12/21 11:59:28;;;;;;;43.00;19.70;;;;;;;;;;4986556;28;20027;-71
2021/12/21 12:01:59;;;;;;;41.60;18.17;;;1.70;99.90;;;;;;4989618;28;20512;-73
2021/12/21 12:04:25;;;;;;;40.92;15.20;;;;;;;;;;4991904;28;20026;-71
2021/12/21 12:06:51;;;;;;;48.20;17.73;;;;;;;;;;4987722;28;20577;-71
2021/12/21 12:09:17;;;;;;;39.78;16.92;;;;;;;;;;4989231;28;20435;-71
2021/12/21 12:11:44;;;;;;;43.67;16.73;;;;;;;;;;4987295;28;20053;-71
2021/12/21 12:14:10;;;;;;;45.45;16.95;;;;;;;;;;4984807;28;20038;-70
2021/12/21 12:16:36;;;;;;;44.75;15.32;;;;;;;;;;4982685;28;20030;-70
2021/12/21 12:19:02;;;;;;;38.40;16.23;;;;;;;;;;4990990;28;20076;-71
2021/12/21 12:21:31;;;;;;;38.35;14.80;;;;;;;;;;4983135;28;20023;-71
2021/12/21 12:23:56;;;;;;;38.47;14.00;;;1.30;99.90;;;;;;4987681;28;20034;-70
2021/12/21 12:26:22;;;;;;;40.63;15.35;;;;;;;;;;4988404;28;20042;-70
2021/12/21 12:28:48;;;;;;;42.92;15.98;;;;;;;;;;4986175;28;20030;-70
2021/12/21 12:31:14;;;;;;;40.83;16.25;;;;;;;;;;4989585;28;20851;-70
2021/12/21 12:33:42;;;;;;;43.97;16.27;;;1.30;99.90;;;;;;4982685;28;20065;-70
2021/12/21 12:36:07;;;;;;;39.92;15.90;;;1.20;99.90;;;;;;4983759;28;20592;-70
2021/12/21 12:38:33;;;;;;;41.92;15.38;;;;;;;;;;4989506;28;20540;-71
2021/12/21 12:40:59;;;;;;;39.17;14.63;;;;;;;;;;4982796;28;20034;-71
2021/12/21 12:43:25;;;;;;;38.30;13.82;;;;;;;;;;4979604;28;20030;-70
2021/12/21 12:45:51;;;;;;;36.85;13.98;;;;;;;;;;4985520;28;20039;-70
2021/12/21 12:48:17;;;;;;;32.35;12.65;;;;;;;;;;4986181;28;20035;-71
2021/12/21 12:50:45;;;;;;;35.22;13.30;;;;;;;;;;4979665;28;20030;-69
2021/12/21 12:53:11;;;;;;;37.58;13.43;;;;;;;;;;4992080;28;20037;-71
2021/12/21 12:55:37;;;;;;;29.52;12.32;;;;;;;;;;4987371;28;20632;-70
2021/12/21 12:58:02;;;;;;;34.90;14.20;;;;;;;;;;4991947;28;20109;-70
2021/12/21 13:00:28;;;;;;;37.33;13.88;;;1.20;99.90;;;;;;4984426;28;20029;-71
2021/12/21 13:02:54;;;;;;;32.72;12.32;;;;;;;;;;4965111;28;20042;-71
2021/12/21 13:05:20;;;;;;;37.50;13.60;;;;;;;;;;4982911;28;20058;-71
2021/12/21 13:07:46;;;;;;;39.08;14.15;;;;;;;;;;4985917;28;20066;-71
2021/12/21 13:10:12;;;;;;;38.15;13.43;;;1.40;99.90;;;;;;4984968;28;20117;-71
2021/12/21 13:12:38;;;;;;;33.30;12.98;;;;;;;;;;4986536;28;20950;-71
2021/12/21 13:15:04;;;;;;;39.40;14.48;;;;;;;;;;4983660;28;20049;-71
2021/12/21 13:17:30;;;;;;;43.10;16.65;;;;;;;;;;4978007;28;20018;-72
2021/12/21 13:19:55;;;;;;;42.55;15.85;;;1.10;99.90;;;;;;4982599;28;20822;-72
2021/12/21 13:22:20;;;;;;;61.08;22.88;;;1.50;99.90;;;;;;4980092;28;20030;-72
2021/12/21 13:24:48;;;;;;;46.97;17.48;;;;;;;;;;4980191;28;20080;-72
2021/12/21 13:27:14;;;;;;;60.85;23.83;;;;;;;;;;4982141;28;20026;-72
2021/12/21 13:29:42;;;;;;;39.25;16.13;;;;;;;;;;4987551;28;21013;-71
2021/12/21 13:32:08;;;;;;;47.35;17.25;;;;;;;;;;4982856;28;20041;-70
2021/12/21 13:34:34;;;;;;;41.35;15.80;;;;;;;;;;4982068;28;20114;-70
2021/12/21 13:37:00;;;;;;;42.00;15.88;;;;;;;;;;4982454;28;20474;-70
2021/12/21 13:39:26;;;;;;;37.67;14.32;;;;;;;;;;4984995;28;20038;-71
2021/12/21 13:41:52;;;;;;;37.80;15.02;;;;;;;;;;4983885;28;20049;-71
2021/12/21 13:44:18;;;;;;;49.67;20.00;;;;;;;;;;4983003;28;20034;-70
2021/12/21 13:46:44;;;;;;;39.50;14.80;;;;;;;;;;4982630;28;20141;-70
2021/12/21 13:49:10;;;;;;;40.20;15.90;;;;;;;;;;4981859;28;20049;-70
2021/12/21 13:51:36;;;;;;;42.55;15.27;;;1.30;99.90;;;;;;4983577;28;20030;-70
2021/12/21 13:54:02;;;;;;;42.53;16.38;;;;;;;;;;4980802;28;20092;-70
2021/12/21 13:56:28;;;;;;;35.72;14.07;;;;;;;;;;4985708;28;20030;-71
2021/12/21 13:58:54;;;;;;;37.22;14.25;;;1.20;99.90;;;;;;4986266;28;20105;-70
2021/12/21 14:01:20;;;;;;;35.53;14.55;;;;;;;;;;4984835;28;20053;-70
2021/12/21 14:03:50;;;;;;;40.38;15.52;;;;;;;;;;4986786;28;20041;-70
2021/12/21 14:06:21;;;;;;;49.92;22.77;;;;;;;;;;4984950;28;20617;-70
2021/12/21 14:08:49;;;;;;;37.90;14.55;;;;;;;;;;4986491;28;20046;-70
2021/12/21 14:11:15;;;;;;;40.17;15.05;;;;;;;;;;4978596;28;20048;-70
2021/12/21 14:13:44;;;;;;;39.75;14.73;;;;;;;;;;4981729;28;20034;-70
2021/12/21 14:16:10;;;;;;;39.08;15.55;;;;;;;;;;4982924;28;20029;-70
2021/12/21 14:18:36;;;;;;;41.47;18.15;;;1.10;99.90;;;;;;4990875;28;20375;-71
2021/12/21 14:21:03;;;;;;;45.15;17.20;;;;;;;;;;4981315;28;20034;-70
2021/12/21 14:23:28;;;;;;;38.35;15.55;;;0.70;99.90;;;;;;4986679;28;20034;-70
2021/12/21 14:25:54;;;;;;;39.45;15.82;;;;;;;;;;4984915;28;20042;-70
2021/12/21 14:28:20;;;;;;;41.00;15.25;;;;;;;;;;4982870;28;20116;-70
2021/12/21 14:30:45;;;;;;;34.85;14.00;;;1.10;99.90;;;;;;4984228;28;20041;-70
2021/12/21 14:33:26;;;;;;;36.33;14.50;;;;;;;;;;4980674;28;20039;-71
2021/12/21 14:35:53;;;;;;;34.50;14.95;;;;;;;;;;4982238;28;20042;-70
2021/12/21 14:38:18;;;;;;;37.17;14.82;;;1.30;99.90;;;;;;4977773;28;20030;-70
2021/12/21 14:40:44;;;;;;;37.13;13.70;;;;;;;;;;4980405;28;20124;-71
2021/12/21 14:43:10;;;;;;;34.78;13.52;;;;;;;;;;4980742;28;20064;-71
2021/12/21 14:45:36;;;;;;;33.35;13.75;;;;;;;;;;4988771;28;20034;-71